Terminal Aerodrome Forecast
Issued by NWS

Home | Current Version | Previous Version | Text Only | Print | Product List | Glossary On
Versions: 1 2 3 4 5 6 7 8 9 10 11 12 13 14 15 16 17 18 19 20
000
FTUS43 KAPX 241120
TAFAPN
TAF
KAPN 241120Z 2412/2512 21004KT P6SM BKN110
     FM241800 18007KT P6SM OVC100
     FM242300 15008KT 6SM -RA OVC050
     FM250200 VRB03KT 4SM -RA OVC020
     FM250500 13006KT 3/4SM RA BR OVC003=

USA.gov is the U.S. government's official web portal to all federal, state and local government web resources and services.